Time;durP1;ratioP1;P1;durP2;ratioP2;P2;SDS_P1;SDS_P2;PMS_P1;PMS_P2;Temp;Humidity;BMP_temperature;BMP_pressure;BME280_temperature;BME280_humidity;BME280_pressure;Samples;Min_cycle;Max_cycle;Signal;HPM_P1;HPM_P2
2022/01/03 00:02:16;;;;;;;38.88;24.17;;;6.90;99.90;;;;;;5019962;28;20022;-78
2022/01/03 00:04:42;;;;;;;33.85;22.05;;;6.90;99.90;;;;;;5052066;28;20406;-78
2022/01/03 00:07:11;;;;;;;46.17;27.23;;;6.90;99.90;;;;;;5020501;28;20485;-78
2022/01/03 00:09:37;;;;;;;33.47;17.95;;;6.90;99.90;;;;;;5019937;28;20042;-78
2022/01/03 00:12:04;;;;;;;27.77;16.00;;;6.80;99.90;;;;;;5018706;28;20025;-78
2022/01/03 00:14:31;;;;;;;32.15;16.27;;;6.80;99.90;;;;;;5020248;28;20054;-77
2022/01/03 00:16:57;;;;;;;31.30;16.17;;;6.80;99.90;;;;;;5018619;28;20077;-77
2022/01/03 00:19:23;;;;;;;27.40;14.90;;;6.80;99.90;;;;;;5018783;28;20026;-77
2022/01/03 00:21:52;;;;;;;33.83;17.88;;;6.80;99.90;;;;;;5019640;28;20558;-78
2022/01/03 00:24:31;;;;;;;34.67;16.10;;;6.70;99.90;;;;;;5019866;28;20082;-78
2022/01/03 00:27:08;;;;;;;30.40;15.93;;;6.70;99.90;;;;;;5019692;28;20034;-77
2022/01/03 00:29:46;;;;;;;31.83;16.05;;;6.70;99.90;;;;;;5019908;28;20053;-77
2022/01/03 00:32:13;;;;;;;30.88;19.42;;;6.60;99.90;;;;;;5018413;28;20118;-77
2022/01/03 00:34:39;;;;;;;34.17;21.73;;;6.60;99.90;;;;;;5017896;28;20105;-77
2022/01/03 00:37:07;;;;;;;28.80;20.80;;;6.60;99.90;;;;;;5019494;28;20026;-77
2022/01/03 00:39:34;;;;;;;38.53;19.83;;;6.50;99.90;;;;;;5019700;28;20379;-78
2022/01/03 00:41:59;;;;;;;32.70;18.50;;;6.50;99.90;;;;;;5019576;28;20037;-78
2022/01/03 00:44:26;;;;;;;42.40;20.45;;;6.50;99.90;;;;;;5019640;28;20537;-78
2022/01/03 00:46:56;;;;;;;37.25;21.38;;;6.50;99.90;;;;;;5019461;28;20036;-77
2022/01/03 00:49:22;;;;;;;28.25;19.48;;;6.40;99.90;;;;;;5018325;28;20069;-77
2022/01/03 00:51:48;;;;;;;32.22;20.42;;;6.40;99.90;;;;;;5019550;28;20033;-78
2022/01/03 00:54:14;;;;;;;35.60;20.65;;;6.40;99.90;;;;;;5019419;28;20022;-78
2022/01/03 00:56:47;;;;;;;33.17;19.10;;;6.40;99.90;;;;;;5019367;28;20033;-78
2022/01/03 00:59:12;;;;;;;35.72;20.08;;;6.30;99.90;;;;;;5019382;28;20022;-78
2022/01/03 01:01:44;;;;;;;34.08;20.08;;;6.30;99.90;;;;;;5019136;28;20030;-77
2022/01/03 01:04:10;;;;;;;34.08;22.55;;;6.30;99.90;;;;;;5019153;28;20025;-77
2022/01/03 01:06:38;;;;;;;40.05;22.10;;;6.30;99.90;;;;;;5019384;28;20042;-77
2022/01/03 01:09:06;;;;;;;32.92;21.67;;;6.30;99.90;;;;;;5017194;28;20046;-77
2022/01/03 01:11:32;;;;;;;42.70;20.80;;;6.30;99.90;;;;;;5008704;28;20045;-78
2022/01/03 01:14:00;;;;;;;40.92;19.27;;;6.30;99.90;;;;;;5017557;28;20113;-78
2022/01/03 01:16:26;;;;;;;41.95;21.55;;;6.30;99.90;;;;;;5018820;28;20025;-78
2022/01/03 01:18:53;;;;;;;53.08;21.70;;;6.30;99.90;;;;;;5018736;28;20022;-78
2022/01/03 01:21:19;;;;;;;46.88;21.88;;;6.30;99.90;;;;;;5018852;28;20034;-78
2022/01/03 01:23:48;;;;;;;63.20;25.95;;;6.30;99.90;;;;;;5018935;28;20033;-78
2022/01/03 01:28:58;;;;;;;91.80;36.25;;;6.30;99.90;;;;;;5018917;28;20032;-77
2022/01/03 01:31:25;;;;;;;83.72;34.28;;;6.30;99.90;;;;;;5018032;28;20502;-78
2022/01/03 01:33:55;;;;;;;77.80;34.13;;;6.30;99.90;;;;;;5018270;28;20120;-77
2022/01/03 01:36:27;;;;;;;85.47;35.67;;;6.30;99.90;;;;;;5018514;28;20048;-77
2022/01/03 01:38:58;;;;;;;74.78;31.15;;;6.20;99.90;;;;;;5018673;28;20257;-77
2022/01/03 01:41:27;;;;;;;74.15;32.63;;;6.20;99.90;;;;;;5018332;28;20101;-77
2022/01/03 01:43:58;;;;;;;88.00;35.85;;;6.20;99.90;;;;;;5017198;28;20045;-77
2022/01/03 01:46:24;;;;;;;173.32;52.90;;;6.30;99.90;;;;;;5018350;28;20030;-77
2022/01/03 01:48:52;;;;;;;145.50;46.20;;;6.20;99.90;;;;;;5018439;28;20026;-77
2022/01/03 01:51:21;;;;;;;158.35;54.40;;;6.20;99.90;;;;;;5017094;28;20030;-77
2022/01/03 01:53:51;;;;;;;148.23;55.00;;;6.20;99.90;;;;;;5016943;28;20054;-77
2022/01/03 01:56:26;;;;;;;151.15;48.13;;;6.10;99.90;;;;;;5018266;28;20026;-77
2022/01/03 01:58:58;;;;;;;109.50;36.65;;;6.10;99.90;;;;;;5018158;28;20084;-78
2022/01/03 02:01:38;;;;;;;163.32;53.63;;;6.10;99.90;;;;;;5017927;28;20022;-78
2022/01/03 02:04:13;;;;;;;143.20;52.58;;;6.00;99.90;;;;;;5016717;28;20026;-77
2022/01/03 02:06:46;;;;;;;125.18;48.40;;;6.00;99.90;;;;;;5018306;28;20030;-77
2022/01/03 02:09:19;;;;;;;109.30;42.03;;;6.00;99.90;;;;;;5016993;28;20110;-77
2022/01/03 02:11:52;;;;;;;95.55;39.47;;;6.00;99.90;;;;;;5018100;28;20025;-78
2022/01/03 02:14:19;;;;;;;105.75;38.75;;;5.90;99.90;;;;;;5017858;28;20044;-77
2022/01/03 02:16:45;;;;;;;74.85;31.52;;;5.90;99.90;;;;;;5016075;28;20033;-77
2022/01/03 02:19:12;;;;;;;57.83;28.05;;;5.90;99.90;;;;;;5013179;28;20026;-77
2022/01/03 02:21:38;;;;;;;67.32;30.48;;;5.90;99.90;;;;;;5010086;28;20022;-77
2022/01/03 02:24:05;;;;;;;66.03;28.67;;;5.90;99.90;;;;;;5016285;28;20026;-77
2022/01/03 02:26:31;;;;;;;61.50;30.10;;;5.80;99.90;;;;;;5017982;28;20414;-77
2022/01/03 02:28:57;;;;;;;52.50;26.90;;;5.80;99.90;;;;;;5016423;28;20026;-77
2022/01/03 02:31:23;;;;;;;54.42;28.55;;;5.80;99.90;;;;;;5017612;28;20359;-77
2022/01/03 02:33:50;;;;;;;56.90;27.73;;;5.80;99.90;;;;;;5017490;28;20026;-77
2022/01/03 02:36:19;;;;;;;55.55;24.95;;;5.80;99.90;;;;;;5017580;28;20506;-77
2022/01/03 02:38:45;;;;;;;56.67;24.65;;;5.80;99.90;;;;;;5016227;28;20050;-77
2022/01/03 02:41:12;;;;;;;52.50;25.95;;;5.80;99.90;;;;;;5017590;28;20056;-78
2022/01/03 02:43:38;;;;;;;57.22;29.60;;;5.80;99.90;;;;;;5017536;28;20105;-77
2022/01/03 02:46:04;;;;;;;56.28;27.20;;;5.90;99.90;;;;;;5016400;28;20056;-77
2022/01/03 02:48:30;;;;;;;64.10;27.77;;;5.90;99.90;;;;;;5017348;28;20110;-77
2022/01/03 02:50:56;;;;;;;48.40;29.08;;;5.90;99.90;;;;;;5017455;28;20155;-77
2022/01/03 02:53:22;;;;;;;58.78;29.00;;;5.90;99.90;;;;;;5016471;28;20093;-77
2022/01/03 02:55:48;;;;;;;57.95;30.35;;;5.90;99.90;;;;;;5017390;28;20066;-77
2022/01/03 02:58:14;;;;;;;59.40;27.90;;;5.90;99.90;;;;;;5017153;28;20030;-77
2022/01/03 03:00:50;;;;;;;53.70;28.92;;;5.90;99.90;;;;;;5017225;28;20171;-77
2022/01/03 03:03:18;;;;;;;56.85;26.75;;;5.90;99.90;;;;;;5016121;28;20049;-77
2022/01/03 03:05:44;;;;;;;53.80;26.17;;;6.00;99.90;;;;;;5017483;28;20029;-77
2022/01/03 03:08:11;;;;;;;49.28;26.40;;;6.00;99.90;;;;;;5017285;28;20050;-77
2022/01/03 03:10:37;;;;;;;56.00;24.42;;;6.00;99.90;;;;;;5017322;28;20077;-77
2022/01/03 03:13:03;;;;;;;40.55;22.48;;;5.90;99.90;;;;;;5017258;28;20030;-77
2022/01/03 03:15:29;;;;;;;43.85;20.90;;;6.00;99.90;;;;;;5017035;28;20097;-77
2022/01/03 03:17:55;;;;;;;35.70;20.77;;;5.90;99.90;;;;;;5010040;28;20034;-77
2022/01/03 03:20:25;;;;;;;46.25;24.88;;;5.90;99.90;;;;;;5012047;28;20026;-77
2022/01/03 03:22:51;;;;;;;53.03;24.70;;;5.80;99.90;;;;;;5017313;28;20037;-77
2022/01/03 03:25:20;;;;;;;44.75;23.00;;;5.80;99.90;;;;;;5015618;28;20401;-77
2022/01/03 03:27:49;;;;;;;41.78;22.88;;;5.80;99.90;;;;;;5017094;28;20095;-77
2022/01/03 03:30:19;;;;;;;55.80;22.80;;;5.80;99.90;;;;;;5016961;28;20026;-77
2022/01/03 03:32:47;;;;;;;35.92;20.90;;;5.80;99.90;;;;;;5015598;28;20093;-77
2022/01/03 03:35:14;;;;;;;41.28;21.83;;;5.70;99.90;;;;;;5016744;28;20962;-77
2022/01/03 03:37:40;;;;;;;31.65;19.05;;;5.70;99.90;;;;;;5015766;28;20037;-77
2022/01/03 03:40:07;;;;;;;41.35;23.60;;;5.70;99.90;;;;;;5015464;28;20034;-77
2022/01/03 03:42:33;;;;;;;45.88;24.55;;;5.60;99.90;;;;;;5016948;28;20486;-77
2022/01/03 03:44:59;;;;;;;45.03;24.40;;;5.70;99.90;;;;;;5016945;28;20026;-77
2022/01/03 03:47:24;;;;;;;44.63;23.25;;;5.70;99.90;;;;;;5016705;28;20014;-77
2022/01/03 03:49:50;;;;;;;41.60;22.65;;;5.70;99.90;;;;;;5014792;28;20482;-77
2022/01/03 03:52:16;;;;;;;43.80;21.08;;;5.70;99.90;;;;;;5016923;28;20030;-77
2022/01/03 03:54:42;;;;;;;38.92;20.02;;;5.70;99.90;;;;;;5015529;28;20148;-77
2022/01/03 03:57:08;;;;;;;39.65;22.08;;;5.60;99.90;;;;;;5019064;28;20111;-78
2022/01/03 03:59:35;;;;;;;43.20;23.02;;;5.60;99.90;;;;;;5020290;28;20405;-77
2022/01/03 04:02:01;;;;;;;38.92;20.83;;;5.50;99.90;;;;;;5018872;28;20084;-76
2022/01/03 04:04:27;;;;;;;39.17;22.35;;;5.50;99.90;;;;;;5020150;28;20022;-77
2022/01/03 04:06:54;;;;;;;41.75;23.40;;;5.50;99.90;;;;;;5019005;28;20028;-77
2022/01/03 04:09:20;;;;;;;47.20;24.13;;;5.40;99.90;;;;;;5018826;28;20088;-77
2022/01/03 04:11:45;;;;;;;43.33;23.10;;;5.50;99.90;;;;;;5018721;28;20402;-78
2022/01/03 04:14:12;;;;;;;35.95;21.45;;;5.40;99.90;;;;;;5020165;28;20046;-77
2022/01/03 04:16:38;;;;;;;44.90;20.77;;;5.40;99.90;;;;;;5018531;28;20028;-77
2022/01/03 04:19:04;;;;;;;40.05;19.30;;;5.30;99.90;;;;;;5019985;28;20036;-77
2022/01/03 04:21:30;;;;;;;41.35;20.17;;;5.30;99.90;;;;;;5051810;28;20030;-77
2022/01/03 04:23:56;;;;;;;35.38;19.23;;;5.30;99.90;;;;;;5019931;28;20022;-76
2022/01/03 04:26:22;;;;;;;31.50;18.95;;;5.30;99.90;;;;;;5018690;28;20022;-77
2022/01/03 04:28:48;;;;;;;40.58;20.92;;;5.20;99.90;;;;;;5019729;28;20022;-77
2022/01/03 04:31:14;;;;;;;55.08;27.40;;;5.20;99.90;;;;;;5018900;28;20030;-77
2022/01/03 04:33:40;;;;;;;38.05;22.85;;;5.30;99.90;;;;;;5019909;28;20076;-77
2022/01/03 04:36:07;;;;;;;49.75;25.15;;;5.30;99.90;;;;;;5018375;28;20498;-78
2022/01/03 04:38:34;;;;;;;42.55;23.25;;;5.40;99.90;;;;;;5018326;28;20034;-77
2022/01/03 04:41:00;;;;;;;44.22;22.67;;;5.40;99.90;;;;;;5010837;28;20022;-77
2022/01/03 04:43:26;;;;;;;40.58;21.35;;;5.40;99.90;;;;;;5019453;28;20029;-77
2022/01/03 04:45:52;;;;;;;42.75;22.35;;;5.40;99.90;;;;;;5019412;28;20022;-78
2022/01/03 04:48:18;;;;;;;35.97;19.58;;;5.40;99.90;;;;;;5019420;28;20033;-77
2022/01/03 04:50:44;;;;;;;41.47;22.15;;;5.40;99.90;;;;;;5018926;28;20025;-78
2022/01/03 04:53:10;;;;;;;39.80;21.65;;;5.40;99.90;;;;;;5019414;28;20026;-78
2022/01/03 04:55:35;;;;;;;44.67;21.35;;;5.40;99.90;;;;;;5019356;28;20124;-78
2022/01/03 04:58:01;;;;;;;57.45;23.00;;;5.40;99.90;;;;;;5019141;28;20517;-78
2022/01/03 05:00:27;;;;;;;43.75;23.50;;;5.50;99.90;;;;;;5019031;28;20022;-78
2022/01/03 05:02:53;;;;;;;58.30;26.70;;;5.60;99.90;;;;;;5018865;28;20030;-78
2022/01/03 05:05:18;;;;;;;52.50;24.02;;;5.60;99.90;;;;;;5018009;28;20061;-78
2022/01/03 05:07:46;;;;;;;51.90;24.88;;;5.60;99.90;;;;;;5017840;28;20026;-78
2022/01/03 05:10:11;;;;;;;69.60;29.00;;;5.60;99.90;;;;;;5016274;28;20029;-78
2022/01/03 05:12:37;;;;;;;60.90;28.15;;;5.50;99.90;;;;;;5018141;28;20018;-78
2022/01/03 05:15:03;;;;;;;49.92;25.60;;;5.50;99.90;;;;;;5018975;28;20060;-78
2022/01/03 05:17:31;;;;;;;34.28;23.13;;;5.50;99.90;;;;;;5018649;28;20050;-78
2022/01/03 05:19:58;;;;;;;33.17;22.95;;;5.40;99.90;;;;;;5018692;28;20032;-78
2022/01/03 05:22:24;;;;;;;38.42;23.95;;;5.40;99.90;;;;;;5017406;28;20394;-77
2022/01/03 05:24:50;;;;;;;39.72;22.75;;;5.40;99.90;;;;;;5018727;28;20026;-78
2022/01/03 05:27:15;;;;;;;30.15;19.70;;;5.30;99.90;;;;;;5018657;28;20022;-77
2022/01/03 05:29:41;;;;;;;30.75;19.05;;;5.30;99.90;;;;;;5017396;28;20510;-77
2022/01/03 05:32:07;;;;;;;39.55;19.17;;;5.30;99.90;;;;;;5017050;28;20034;-77
2022/01/03 05:34:33;;;;;;;30.23;20.25;;;5.20;99.90;;;;;;5017237;28;20022;-77
2022/01/03 05:36:59;;;;;;;38.00;21.00;;;5.10;99.90;;;;;;5015583;28;20064;-77
2022/01/03 05:39:24;;;;;;;33.67;21.30;;;5.10;99.90;;;;;;5042341;28;20612;-78
2022/01/03 05:41:50;;;;;;;36.05;22.23;;;5.10;99.90;;;;;;5018044;28;20050;-77
2022/01/03 05:44:16;;;;;;;32.60;19.27;;;5.10;99.90;;;;;;5018539;28;20036;-77
2022/01/03 05:46:42;;;;;;;32.80;20.67;;;5.00;99.90;;;;;;5017977;28;20097;-78
2022/01/03 05:49:08;;;;;;;33.33;19.02;;;5.00;99.90;;;;;;5017013;28;20121;-78
2022/01/03 05:51:34;;;;;;;38.40;22.20;;;4.90;99.90;;;;;;5018126;28;20034;-77
2022/01/03 05:53:59;;;;;;;36.63;21.35;;;4.90;99.90;;;;;;5018198;28;20037;-77
2022/01/03 05:56:25;;;;;;;36.33;21.98;;;4.90;99.90;;;;;;5018058;28;20038;-78
2022/01/03 05:58:51;;;;;;;31.10;22.20;;;4.90;99.90;;;;;;5018089;28;20398;-78
2022/01/03 06:01:20;;;;;;;34.45;22.60;;;4.90;99.90;;;;;;5017749;28;20084;-78
2022/01/03 06:03:46;;;;;;;44.15;23.33;;;4.90;99.90;;;;;;5018084;28;20105;-78
2022/01/03 06:08:39;;;;;;;36.08;22.60;;;4.90;99.90;;;;;;5004898;28;20050;-78
2022/01/03 06:11:04;;;;;;;46.30;24.05;;;5.00;99.90;;;;;;5017949;28;20080;-76
2022/01/03 06:13:30;;;;;;;75.30;25.08;;;4.90;99.90;;;;;;5016499;28;20049;-76
2022/01/03 06:15:57;;;;;;;64.38;25.42;;;4.90;99.90;;;;;;5016727;28;20029;-78
2022/01/03 06:18:24;;;;;;;78.45;25.75;;;4.90;99.90;;;;;;5016365;28;20026;-78
2022/01/03 06:20:51;;;;;;;90.03;25.45;;;5.00;99.90;;;;;;5017642;28;20029;-78
2022/01/03 06:23:19;;;;;;;76.50;25.83;;;5.00;99.90;;;;;;5016439;28;20033;-77
2022/01/03 06:25:45;;;;;;;124.88;32.05;;;4.90;99.90;;;;;;5016283;28;20022;-77
2022/01/03 06:28:11;;;;;;;82.82;28.15;;;5.00;99.90;;;;;;5016838;28;20022;-77
2022/01/03 06:30:39;;;;;;;69.88;29.55;;;5.00;99.90;;;;;;5015071;28;20487;-78
2022/01/03 06:33:06;;;;;;;69.28;28.67;;;5.00;99.90;;;;;;5017712;28;20026;-78
2022/01/03 06:35:32;;;;;;;78.10;28.20;;;5.10;99.90;;;;;;5017149;28;20494;-78
2022/01/03 06:37:59;;;;;;;66.00;28.30;;;5.10;99.90;;;;;;5017558;28;20026;-77
2022/01/03 06:40:25;;;;;;;83.53;29.85;;;5.10;99.90;;;;;;5016567;28;20018;-77
2022/01/03 06:42:51;;;;;;;57.05;28.10;;;5.10;99.90;;;;;;5017598;28;20029;-77
2022/01/03 06:45:18;;;;;;;82.00;30.48;;;5.10;99.90;;;;;;5017439;28;20083;-77
2022/01/03 06:47:44;;;;;;;85.68;29.55;;;5.10;99.90;;;;;;5015960;28;20030;-77
2022/01/03 06:50:10;;;;;;;97.18;31.02;;;5.00;99.90;;;;;;5016538;28;20029;-77
2022/01/03 06:52:36;;;;;;;71.40;29.55;;;5.00;99.90;;;;;;5016133;28;20487;-77
2022/01/03 06:55:04;;;;;;;86.80;31.83;;;4.90;99.90;;;;;;5017274;28;20029;-77
2022/01/03 06:57:30;;;;;;;66.78;29.33;;;4.90;99.90;;;;;;5017232;28;20108;-77
2022/01/03 06:59:56;;;;;;;70.70;28.92;;;4.90;99.90;;;;;;5017122;28;20046;-78
2022/01/03 07:02:22;;;;;;;86.57;31.45;;;4.80;99.90;;;;;;5017111;28;20041;-77
2022/01/03 07:04:48;;;;;;;79.03;33.88;;;4.80;99.90;;;;;;5015812;28;20026;-77
2022/01/03 07:07:14;;;;;;;70.35;30.27;;;4.70;99.90;;;;;;5017329;28;20088;-77
2022/01/03 07:09:40;;;;;;;80.80;35.70;;;4.80;99.90;;;;;;5015658;28;20042;-77
2022/01/03 07:12:07;;;;;;;74.38;30.92;;;4.70;99.90;;;;;;5015711;28;20514;-77
2022/01/03 07:19:58;;;;;;;56.55;30.67;;;4.80;99.90;;;;;;5017319;28;20041;-77
2022/01/03 07:22:24;;;;;;;55.42;30.85;;;4.80;99.90;;;;;;5016994;28;20056;-77
2022/01/03 07:24:51;;;;;;;57.65;30.13;;;4.80;99.90;;;;;;5017042;28;20018;-77
2022/01/03 07:27:18;;;;;;;58.45;31.83;;;4.80;99.90;;;;;;5015629;28;20073;-76
2022/01/03 07:29:48;;;;;;;55.03;29.70;;;4.80;99.90;;;;;;5016693;28;20401;-76
2022/01/03 07:32:14;;;;;;;59.80;31.30;;;4.80;99.90;;;;;;5019017;28;20066;-76
2022/01/03 07:34:40;;;;;;;58.38;32.90;;;4.80;99.90;;;;;;5020795;28;20029;-76
2022/01/03 07:37:06;;;;;;;52.22;30.90;;;4.80;99.90;;;;;;5020648;28;20033;-76
2022/01/03 07:39:34;;;;;;;71.38;41.40;;;4.80;99.90;;;;;;5019486;28;20033;-76
2022/01/03 07:42:01;;;;;;;197.68;92.97;;;4.80;99.90;;;;;;5019122;28;20065;-76
2022/01/03 07:44:27;;;;;;;91.07;45.67;;;4.80;99.90;;;;;;5020288;28;20029;-76
2022/01/03 07:46:54;;;;;;;89.10;43.42;;;4.80;99.90;;;;;;5020341;28;20375;-76
2022/01/03 07:49:21;;;;;;;131.27;45.50;;;4.80;99.90;;;;;;5019291;28;20475;-76
2022/01/03 07:51:47;;;;;;;76.57;35.17;;;4.80;99.90;;;;;;5020562;28;20022;-76
2022/01/03 07:54:12;;;;;;;64.20;34.05;;;4.80;99.90;;;;;;5019103;28;20121;-76
2022/01/03 07:56:38;;;;;;;65.82;35.67;;;4.80;99.90;;;;;;5020369;28;20034;-76
2022/01/03 07:59:05;;;;;;;84.60;51.85;;;4.80;99.90;;;;;;5020393;28;20033;-76
2022/01/03 08:01:32;;;;;;;78.53;50.35;;;4.80;99.90;;;;;;5019550;28;20502;-76
2022/01/03 08:03:58;;;;;;;72.30;46.45;;;4.80;99.90;;;;;;5051355;28;20026;-76
2022/01/03 08:06:23;;;;;;;73.78;41.20;;;4.80;99.90;;;;;;5019730;28;20016;-76
2022/01/03 08:08:49;;;;;;;94.97;51.20;;;4.90;99.90;;;;;;5019533;28;20046;-76
2022/01/03 08:11:15;;;;;;;72.75;43.20;;;4.90;99.90;;;;;;5015930;28;20045;-76
2022/01/03 08:13:41;;;;;;;64.97;35.17;;;4.90;99.90;;;;;;5017887;28;20075;-76
2022/01/03 08:16:06;;;;;;;59.63;34.05;;;4.90;99.90;;;;;;5018289;28;20127;-76
2022/01/03 08:18:33;;;;;;;378.77;128.30;;;5.00;99.90;;;;;;5007360;28;20033;-76
2022/01/03 08:20:59;;;;;;;173.43;71.28;;;5.00;99.90;;;;;;5009636;28;20034;-76
2022/01/03 08:23:25;;;;;;;508.77;182.25;;;5.10;99.90;;;;;;5019348;28;20022;-76
2022/01/03 08:25:50;;;;;;;468.33;168.63;;;5.20;99.90;;;;;;5018396;28;20076;-76
2022/01/03 08:28:16;;;;;;;49.40;30.45;;;5.20;99.90;;;;;;5017358;28;20457;-75
2022/01/03 08:30:42;;;;;;;74.00;40.40;;;5.20;99.90;;;;;;5018266;28;20065;-76
2022/01/03 08:33:08;;;;;;;684.85;347.73;;;5.30;99.90;;;;;;5019741;28;20033;-76
2022/01/03 08:35:34;;;;;;;266.77;118.35;;;5.40;99.90;;;;;;5019018;28;20053;-76
2022/01/03 08:38:01;;;;;;;60.10;29.52;;;5.30;99.90;;;;;;5050008;28;20034;-76
2022/01/03 08:40:27;;;;;;;62.00;31.98;;;5.40;99.90;;;;;;5051155;28;20026;-76
2022/01/03 08:42:53;;;;;;;121.35;55.40;;;5.50;99.90;;;;;;5051018;28;20030;-76
2022/01/03 08:45:19;;;;;;;84.97;38.80;;;5.50;99.90;;;;;;5019613;28;20042;-76
2022/01/03 08:47:46;;;;;;;80.65;44.47;;;5.60;99.90;;;;;;5018777;28;20022;-76
2022/01/03 08:50:12;;;;;;;379.90;154.35;;;5.60;99.90;;;;;;5046158;28;20029;-76
2022/01/03 08:52:38;;;;;;;352.13;149.15;;;5.60;99.90;;;;;;5018983;28;20463;-76
2022/01/03 08:55:05;;;;;;;279.58;115.13;;;5.70;99.90;;;;;;5051023;28;20018;-76
2022/01/03 08:57:31;;;;;;;82.20;44.70;;;5.80;99.90;;;;;;5017447;28;20034;-76
2022/01/03 08:59:57;;;;;;;464.50;233.48;;;5.90;99.90;;;;;;5050920;28;20022;-76
2022/01/03 09:02:22;;;;;;;611.28;329.83;;;5.90;99.90;;;;;;5050440;28;20041;-76
2022/01/03 09:04:48;;;;;;;59.67;37.10;;;6.00;99.90;;;;;;5018888;28;20502;-76
2022/01/03 09:07:14;;;;;;;221.48;106.47;;;6.00;99.90;;;;;;5019179;28;20104;-76
2022/01/03 09:09:40;;;;;;;533.75;290.60;;;6.10;99.90;;;;;;5017744;28;20173;-76
2022/01/03 09:12:07;;;;;;;98.65;52.75;;;6.10;99.90;;;;;;5017571;28;20064;-76
2022/01/03 09:14:35;;;;;;;57.63;33.20;;;6.20;99.90;;;;;;5017230;28;20068;-76
2022/01/03 09:17:02;;;;;;;276.98;158.23;;;6.30;99.90;;;;;;5018460;28;20271;-76
2022/01/03 09:19:28;;;;;;;156.23;93.70;;;6.30;99.90;;;;;;5018850;28;20041;-76
2022/01/03 09:22:15;;;;;;;64.60;35.90;;;6.30;99.90;;;;;;5050141;28;20460;-76
2022/01/03 09:24:53;;;;;;;126.55;69.88;;;6.50;99.90;;;;;;5007795;28;20102;-76
2022/01/03 09:30:06;;;;;;;65.13;42.95;;;6.70;99.90;;;;;;5018553;28;20390;-76
2022/01/03 09:32:32;;;;;;;116.22;69.38;;;6.70;99.90;;;;;;5018363;28;20053;-76
2022/01/03 09:34:58;;;;;;;115.68;69.95;;;6.80;99.90;;;;;;5016383;28;20029;-76
2022/01/03 09:37:24;;;;;;;63.30;38.45;;;6.80;99.90;;;;;;5018542;28;20034;-76
2022/01/03 09:39:52;;;;;;;154.07;90.85;;;7.00;99.90;;;;;;5018036;28;20046;-76
2022/01/03 09:42:27;;;;;;;181.65;101.88;;;7.00;99.90;;;;;;5017942;28;20049;-76
2022/01/03 09:44:53;;;;;;;134.75;86.15;;;7.20;99.90;;;;;;5049648;28;20030;-76
2022/01/03 09:47:21;;;;;;;43.65;26.02;;;7.20;99.90;;;;;;5013102;28;20649;-76
2022/01/03 09:49:47;;;;;;;70.35;46.65;;;7.30;99.90;;;;;;5014103;28;20104;-76
2022/01/03 09:52:15;;;;;;;57.60;40.45;;;7.40;99.90;;;;;;5017296;28;20129;-76
2022/01/03 09:54:42;;;;;;;34.72;25.52;;;7.50;99.90;;;;;;5017116;28;20105;-76
2022/01/03 09:57:08;;;;;;;52.17;37.33;;;7.60;99.90;;;;;;5017755;28;20104;-77
2022/01/03 09:59:36;;;;;;;104.78;66.15;;;7.70;99.90;;;;;;5049794;28;20036;-76
2022/01/03 10:02:05;;;;;;;51.55;35.95;;;7.80;99.90;;;;;;5017956;28;20030;-76
2022/01/03 10:04:32;;;;;;;58.47;35.72;;;7.90;99.90;;;;;;5017758;28;20153;-76
2022/01/03 10:06:58;;;;;;;45.13;31.92;;;7.80;99.90;;;;;;5050215;28;20033;-76
2022/01/03 10:09:24;;;;;;;34.35;26.40;;;7.90;99.90;;;;;;5016797;28;20524;-76
2022/01/03 10:11:50;;;;;;;173.25;100.50;;;8.00;99.90;;;;;;5015473;28;20025;-76
2022/01/03 10:14:16;;;;;;;113.85;63.72;;;8.10;99.90;;;;;;5016902;28;20026;-76
2022/01/03 10:16:44;;;;;;;38.53;27.58;;;8.20;99.90;;;;;;5016227;28;20057;-76
2022/01/03 10:19:10;;;;;;;88.43;51.17;;;8.30;99.90;;;;;;5016964;28;20053;-80
2022/01/03 10:21:48;;;;;;;43.05;27.83;;;8.40;99.90;;;;;;5049366;28;20026;-76
2022/01/03 10:24:16;;;;;;;40.88;25.92;;;8.40;99.90;;;;;;5017772;28;20018;-76
2022/01/03 10:26:43;;;;;;;65.03;41.72;;;8.50;99.90;;;;;;5016396;28;20109;-75
2022/01/03 10:29:12;;;;;;;46.25;29.00;;;8.60;99.90;;;;;;5016386;28;20033;-76
2022/01/03 10:31:40;;;;;;;98.60;55.63;;;8.70;99.90;;;;;;5015880;28;20502;-74
2022/01/03 10:34:08;;;;;;;62.83;37.40;;;8.70;99.90;;;;;;5016609;28;20026;-74
2022/01/03 10:36:36;;;;;;;43.97;24.98;;;8.80;99.90;;;;;;5016115;28;20455;-74
2022/01/03 10:39:14;;;;;;;27.38;20.55;;;8.90;99.90;;;;;;5018066;28;20068;-75
2022/01/03 10:41:40;;;;;;;55.28;31.90;;;9.00;99.90;;;;;;5016337;28;20040;-75
2022/01/03 10:44:07;;;;;;;91.55;54.38;;;9.10;99.90;;;;;;5017589;28;20014;-76
2022/01/03 10:46:35;;;;;;;94.75;56.33;;;9.20;99.90;;;;;;5015295;28;20052;-75
2022/01/03 10:49:19;;;;;;;62.22;38.50;;;9.20;99.90;;;;;;5016178;28;20030;-76
2022/01/03 10:51:46;;;;;;;53.50;32.88;;;9.30;99.90;;;;;;5016058;28;20030;-75
2022/01/03 10:54:16;;;;;;;51.65;32.42;;;9.40;99.90;;;;;;5016014;28;20441;-75
2022/01/03 10:56:48;;;;;;;31.67;21.27;;;9.50;99.90;;;;;;5017278;28;20030;-75
2022/01/03 10:59:23;;;;;;;25.15;18.38;;;9.60;99.90;;;;;;5017172;28;20394;-75
2022/01/03 11:02:01;;;;;;;32.30;21.70;;;9.60;99.90;;;;;;5015495;28;20030;-76
2022/01/03 11:04:33;;;;;;;37.35;23.15;;;9.80;99.90;;;;;;5017163;28;20034;-76
2022/01/03 11:13:21;;;;;;;30.52;20.30;;;10.10;99.90;;;;;;5022142;28;20086;-76
2022/01/03 11:16:00;;;;;;;43.28;26.85;;;10.20;99.90;;;;;;5020437;28;20050;-76
2022/01/03 11:18:31;;;;;;;116.13;59.45;;;10.20;99.90;;;;;;5020628;28;20057;-76
2022/01/03 11:21:15;;;;;;;59.92;31.25;;;10.40;99.90;;;;;;5019403;28;20033;-76
2022/01/03 11:23:59;;;;;;;32.60;19.83;;;10.50;99.90;;;;;;5019629;28;20405;-75
2022/01/03 11:26:25;;;;;;;24.05;15.40;;;10.50;99.90;;;;;;5015230;28;20442;-76
2022/01/03 11:28:52;;;;;;;26.73;15.55;;;10.70;99.90;;;;;;5019742;28;20022;-76
2022/01/03 11:31:20;;;;;;;25.05;17.20;;;10.80;99.90;;;;;;5019923;28;20491;-76
2022/01/03 11:33:47;;;;;;;31.48;16.80;;;10.90;99.90;;;;;;5020283;28;20022;-76
2022/01/03 11:36:15;;;;;;;20.80;14.73;;;11.00;99.90;;;;;;5020235;28;20460;-76
2022/01/03 11:38:43;;;;;;;32.25;14.35;;;11.10;99.90;;;;;;5020201;28;20025;-75
2022/01/03 11:41:11;;;;;;;25.60;11.07;;;11.20;99.90;;;;;;5020280;28;20022;-75
2022/01/03 11:43:38;;;;;;;23.50;11.90;;;11.20;99.90;;;;;;5020357;28;20371;-75
2022/01/03 11:46:05;;;;;;;21.95;10.77;;;11.30;99.90;;;;;;5019470;28;20022;-75
2022/01/03 11:48:31;;;;;;;20.23;9.95;;;11.40;99.90;;;;;;5019165;28;20095;-75
2022/01/03 11:51:03;;;;;;;20.67;10.20;;;11.50;99.90;;;;;;5019205;28;20120;-76
2022/01/03 11:53:41;;;;;;;18.27;10.02;;;11.60;99.90;;;;;;5040120;28;20034;-75
2022/01/03 11:56:09;;;;;;;14.40;8.55;;;11.70;99.90;;;;;;5040148;28;20025;-76
2022/01/03 11:58:59;;;;;;;19.05;9.40;;;11.70;99.90;;;;;;5038905;28;20061;-75
2022/01/03 12:04:23;;;;;;;13.07;6.57;;;11.90;99.90;;;;;;5040263;28;20508;-75
2022/01/03 12:07:01;;;;;;;19.02;7.97;;;11.90;99.90;;;;;;5038906;28;20067;-75
2022/01/03 12:09:29;;;;;;;16.95;6.65;;;11.90;99.90;;;;;;5039890;28;20103;-75
2022/01/03 12:11:56;;;;;;;14.75;6.25;;;12.00;99.90;;;;;;5039942;28;20021;-75
2022/01/03 12:14:43;;;;;;;18.63;7.07;;;12.00;99.90;;;;;;5027871;28;20109;-75
2022/01/03 12:17:11;;;;;;;11.85;5.53;;;12.10;99.90;;;;;;5014721;28;20410;-75
2022/01/03 12:19:39;;;;;;;17.13;6.80;;;12.20;99.90;;;;;;5020190;28;20540;-75
2022/01/03 12:22:11;;;;;;;208.43;85.70;;;12.20;99.90;;;;;;5019916;28;20030;-75
2022/01/03 12:24:54;;;;;;;606.88;277.08;;;12.30;99.90;;;;;;5018576;28;20118;-75
2022/01/03 12:27:20;;;;;;;137.43;49.83;;;12.40;99.90;;;;;;5019903;28;20406;-76
2022/01/03 12:29:56;;;;;;;304.15;115.10;;;12.50;99.90;;;;;;5019132;28;20101;-76
2022/01/03 12:32:26;;;;;;;172.07;70.82;;;12.60;99.90;;;;;;5018573;28;20113;-76
2022/01/03 12:35:15;;;;;;;43.63;20.00;;;12.70;99.90;;;;;;5018954;28;20025;-76
2022/01/03 12:37:53;;;;;;;14.32;6.38;;;12.80;99.90;;;;;;5018947;28;20027;-76
2022/01/03 12:40:31;;;;;;;153.60;68.63;;;12.70;99.90;;;;;;5017481;28;20054;-76
2022/01/03 12:43:10;;;;;;;31.60;13.68;;;12.80;99.90;;;;;;5048789;28;20022;-76
2022/01/03 12:45:45;;;;;;;21.70;8.05;;;12.80;99.90;;;;;;5018123;28;20029;-76
2022/01/03 12:50:37;;;;;;;22.52;8.48;;;12.90;99.90;;;;;;5019101;28;20022;-76
2022/01/03 12:53:05;;;;;;;21.88;9.27;;;12.90;99.90;;;;;;5018941;28;20474;-76
2022/01/03 12:55:43;;;;;;;23.63;9.95;;;12.90;99.90;;;;;;5050727;28;20068;-76
2022/01/03 12:58:18;;;;;;;50.72;22.30;;;12.90;99.90;;;;;;5016584;28;20089;-76
2022/01/03 13:01:00;;;;;;;81.43;35.88;;;12.90;99.90;;;;;;5017996;28;20030;-76
2022/01/03 13:03:29;;;;;;;27.13;12.60;;;13.00;99.90;;;;;;5018079;28;20022;-76